Main page
Satellite images 15-day forecastsClimateMarine weather Cyclones Lightning AirportsFAQ Newsletter About
Weather : Europe Africa North America South America Asia Australia-Oceania Others
Languages Contact

Baia Mare, Romania

latitude: 47-40N, longitude: 023-35E, elevation: 218 m


METAR: LRBM 200300Z AUTO 10004KT 070V130 6000 FEW016 SCT170 BKN240 06/05 Q1016
TAF: LRBM 191400Z 1915/1924 10005KT 3000 BR BKN010 OVC020 BECMG 1916/1918 BKN005 OVC015

Time: 05:39 (03:39 UTC)

Current weather observation

The report was made 39 minutes ago, at 03:00 UTC
Wind 4 kt from the East, varying between East/Northeast and Southeast
Temperature 6°C
Humidity 93%
Pressure 1016 hPa
Visibility: 6000 m
Few clouds at a height of 1600 ft
Scattered clouds at a height of 17000 ft
Broken clouds at a height of 24000 ft

Change units

Forecast

The report was made 13 hours and 39 minutes ago, at 14:00 UTC
Forecast valid from 19 at 15 UTC to 19 at 24 UTC
Wind 5 kt from the East
Visibility: 3000 m
Broken clouds at a height of 1000 ft
Overcast at a height of 2000 ft
mist
Becoming
from 19 at 16 UTC to 19 at 18 UTC
Broken clouds at a height of 500 ft
Overcast at a height of 1500 ft
The information on this site is subject to a disclaimer
Weather : Europe Africa North America South America Asia Australia-Oceania Others
Satellite images 15-day forecastsClimateMarine weather Cyclones Lightning AirportsFAQ Languages Contact Newsletter About